sensor_id;sensor_type;location;lat;lon;timestamp;pressure;altitude;pressure_sealevel;temperature
15062;BMP180;7630;50.306;8.566;2023-04-05T00:02:14;98463.00;;;4.20
15062;BMP180;7630;50.306;8.566;2023-04-05T00:06:17;98466.00;;;4.50
15062;BMP180;7630;50.306;8.566;2023-04-05T00:10:18;98457.00;;;4.50
15062;BMP180;7630;50.306;8.566;2023-04-05T00:14:20;98470.00;;;4.50
15062;BMP180;7630;50.306;8.566;2023-04-05T00:18:21;98462.00;;;4.20
15062;BMP180;7630;50.306;8.566;2023-04-05T00:22:23;98467.00;;;4.40
15062;BMP180;7630;50.306;8.566;2023-04-05T00:26:26;98458.00;;;4.00
15062;BMP180;7630;50.306;8.566;2023-04-05T00:30:27;98471.00;;;4.30
15062;BMP180;7630;50.306;8.566;2023-04-05T00:34:28;98457.00;;;3.90
15062;BMP180;7630;50.306;8.566;2023-04-05T00:38:29;98460.00;;;4.10
15062;BMP180;7630;50.306;8.566;2023-04-05T00:42:31;98453.00;;;4.00
15062;BMP180;7630;50.306;8.566;2023-04-05T00:46:35;98453.00;;;3.80
15062;BMP180;7630;50.306;8.566;2023-04-05T00:50:37;98452.00;;;3.50
15062;BMP180;7630;50.306;8.566;2023-04-05T00:54:38;98442.00;;;4.20
15062;BMP180;7630;50.306;8.566;2023-04-05T00:58:41;98433.00;;;4.10
15062;BMP180;7630;50.306;8.566;2023-04-05T01:03:01;98434.00;;;3.90
15062;BMP180;7630;50.306;8.566;2023-04-05T01:07:22;98419.00;;;3.80
15062;BMP180;7630;50.306;8.566;2023-04-05T01:11:22;98423.00;;;3.70
15062;BMP180;7630;50.306;8.566;2023-04-05T01:15:24;98423.00;;;3.90
15062;BMP180;7630;50.306;8.566;2023-04-05T01:19:27;98413.00;;;3.70
15062;BMP180;7630;50.306;8.566;2023-04-05T01:23:55;98418.00;;;3.50
15062;BMP180;7630;50.306;8.566;2023-04-05T01:32:14;98409.00;;;3.10
15062;BMP180;7630;50.306;8.566;2023-04-05T01:36:30;98411.00;;;3.20
15062;BMP180;7630;50.306;8.566;2023-04-05T01:40:31;98409.00;;;3.30
15062;BMP180;7630;50.306;8.566;2023-04-05T01:44:33;98413.00;;;3.20
15062;BMP180;7630;50.306;8.566;2023-04-05T01:48:34;98289.00;;;3.20
15062;BMP180;7630;50.306;8.566;2023-04-05T01:52:35;98400.00;;;3.20
15062;BMP180;7630;50.306;8.566;2023-04-05T01:56:36;98401.00;;;3.10
15062;BMP180;7630;50.306;8.566;2023-04-05T02:00:37;98411.00;;;3.10
15062;BMP180;7630;50.306;8.566;2023-04-05T02:04:38;98397.00;;;3.00
15062;BMP180;7630;50.306;8.566;2023-04-05T02:08:40;98389.00;;;2.90
15062;BMP180;7630;50.306;8.566;2023-04-05T02:12:41;98391.00;;;2.80
15062;BMP180;7630;50.306;8.566;2023-04-05T02:16:42;98392.00;;;2.90
15062;BMP180;7630;50.306;8.566;2023-04-05T02:20:44;98384.00;;;2.80
15062;BMP180;7630;50.306;8.566;2023-04-05T02:24:47;98391.00;;;2.80
15062;BMP180;7630;50.306;8.566;2023-04-05T02:28:48;98396.00;;;2.60
15062;BMP180;7630;50.306;8.566;2023-04-05T02:32:49;98399.00;;;2.70
15062;BMP180;7630;50.306;8.566;2023-04-05T02:36:50;98386.00;;;2.40
15062;BMP180;7630;50.306;8.566;2023-04-05T02:45:01;98393.00;;;2.40
15062;BMP180;7630;50.306;8.566;2023-04-05T02:49:03;98393.00;;;2.30
15062;BMP180;7630;50.306;8.566;2023-04-05T02:53:04;98383.00;;;2.40
15062;BMP180;7630;50.306;8.566;2023-04-05T02:57:05;98383.00;;;2.20
15062;BMP180;7630;50.306;8.566;2023-04-05T03:01:08;98380.00;;;2.50
15062;BMP180;7630;50.306;8.566;2023-04-05T03:05:09;98387.00;;;2.20
15062;BMP180;7630;50.306;8.566;2023-04-05T03:09:10;98375.00;;;2.40
15062;BMP180;7630;50.306;8.566;2023-04-05T03:13:13;98374.00;;;2.30
15062;BMP180;7630;50.306;8.566;2023-04-05T03:17:14;98377.00;;;2.20
15062;BMP180;7630;50.306;8.566;2023-04-05T03:21:15;98384.00;;;2.30
15062;BMP180;7630;50.306;8.566;2023-04-05T03:25:18;98375.00;;;2.30
15062;BMP180;7630;50.306;8.566;2023-04-05T03:29:19;98385.00;;;2.10
15062;BMP180;7630;50.306;8.566;2023-04-05T03:33:20;98373.00;;;2.00
15062;BMP180;7630;50.306;8.566;2023-04-05T03:37:21;98381.00;;;1.90
15062;BMP180;7630;50.306;8.566;2023-04-05T03:41:22;98373.00;;;1.80
15062;BMP180;7630;50.306;8.566;2023-04-05T03:45:23;98370.00;;;1.90
15062;BMP180;7630;50.306;8.566;2023-04-05T03:49:25;98357.00;;;1.70
15062;BMP180;7630;50.306;8.566;2023-04-05T03:53:26;98350.00;;;1.80
15062;BMP180;7630;50.306;8.566;2023-04-05T03:57:29;98359.00;;;1.80
15062;BMP180;7630;50.306;8.566;2023-04-05T04:01:31;98354.00;;;1.70
15062;BMP180;7630;50.306;8.566;2023-04-05T04:05:32;98353.00;;;1.60
15062;BMP180;7630;50.306;8.566;2023-04-05T04:09:35;98354.00;;;1.60
15062;BMP180;7630;50.306;8.566;2023-04-05T04:13:36;98348.00;;;1.70
15062;BMP180;7630;50.306;8.566;2023-04-05T04:17:37;98351.00;;;1.40
15062;BMP180;7630;50.306;8.566;2023-04-05T04:21:39;98359.00;;;1.10
15062;BMP180;7630;50.306;8.566;2023-04-05T04:25:40;98356.00;;;1.50
15062;BMP180;7630;50.306;8.566;2023-04-05T04:29:43;98359.00;;;1.30
15062;BMP180;7630;50.306;8.566;2023-04-05T04:33:49;98361.00;;;1.20
15062;BMP180;7630;50.306;8.566;2023-04-05T04:37:54;98359.00;;;1.20
15062;BMP180;7630;50.306;8.566;2023-04-05T04:41:57;98363.00;;;1.10
15062;BMP180;7630;50.306;8.566;2023-04-05T04:45:59;98353.00;;;0.70
15062;BMP180;7630;50.306;8.566;2023-04-05T04:50:00;98355.00;;;1.40
15062;BMP180;7630;50.306;8.566;2023-04-05T04:54:01;98369.00;;;1.50
15062;BMP180;7630;50.306;8.566;2023-04-05T04:58:02;98349.00;;;1.50
15062;BMP180;7630;50.306;8.566;2023-04-05T05:02:08;98347.00;;;1.40
15062;BMP180;7630;50.306;8.566;2023-04-05T05:06:15;98349.00;;;1.40
15062;BMP180;7630;50.306;8.566;2023-04-05T05:10:15;98355.00;;;1.40
15062;BMP180;7630;50.306;8.566;2023-04-05T05:14:17;98355.00;;;1.50
15062;BMP180;7630;50.306;8.566;2023-04-05T05:18:18;98351.00;;;1.40
15062;BMP180;7630;50.306;8.566;2023-04-05T05:22:19;98363.00;;;1.20
15062;BMP180;7630;50.306;8.566;2023-04-05T05:26:20;98357.00;;;1.40
15062;BMP180;7630;50.306;8.566;2023-04-05T05:30:21;98361.00;;;1.30
15062;BMP180;7630;50.306;8.566;2023-04-05T05:34:22;98360.00;;;1.60
15062;BMP180;7630;50.306;8.566;2023-04-05T05:38:24;98355.00;;;1.80
15062;BMP180;7630;50.306;8.566;2023-04-05T05:42:25;98353.00;;;2.00
15062;BMP180;7630;50.306;8.566;2023-04-05T05:46:32;98358.00;;;2.10
15062;BMP180;7630;50.306;8.566;2023-04-05T05:50:33;98361.00;;;2.40
15062;BMP180;7630;50.306;8.566;2023-04-05T05:54:34;98365.00;;;2.60
15062;BMP180;7630;50.306;8.566;2023-04-05T05:58:36;98365.00;;;2.80
15062;BMP180;7630;50.306;8.566;2023-04-05T06:02:37;98367.00;;;3.00
15062;BMP180;7630;50.306;8.566;2023-04-05T06:06:39;98374.00;;;3.40
15062;BMP180;7630;50.306;8.566;2023-04-05T06:10:42;98370.00;;;3.60
15062;BMP180;7630;50.306;8.566;2023-04-05T06:14:43;98371.00;;;3.90
15062;BMP180;7630;50.306;8.566;2023-04-05T06:18:44;98365.00;;;4.10
15062;BMP180;7630;50.306;8.566;2023-04-05T06:22:45;98362.00;;;4.60
15062;BMP180;7630;50.306;8.566;2023-04-05T06:26:48;98364.00;;;4.80
15062;BMP180;7630;50.306;8.566;2023-04-05T06:30:49;98370.00;;;5.30
15062;BMP180;7630;50.306;8.566;2023-04-05T06:34:51;98376.00;;;5.80
15062;BMP180;7630;50.306;8.566;2023-04-05T06:38:53;98372.00;;;5.90
15062;BMP180;7630;50.306;8.566;2023-04-05T06:42:54;98377.00;;;5.90
15062;BMP180;7630;50.306;8.566;2023-04-05T06:46:55;98244.00;;;6.30
15062;BMP180;7630;50.306;8.566;2023-04-05T06:50:57;98377.00;;;6.90
15062;BMP180;7630;50.306;8.566;2023-04-05T06:54:59;98369.00;;;7.60
15062;BMP180;7630;50.306;8.566;2023-04-05T06:59:00;98375.00;;;7.30
15062;BMP180;7630;50.306;8.566;2023-04-05T07:03:02;98371.00;;;5.20
15062;BMP180;7630;50.306;8.566;2023-04-05T07:07:04;98368.00;;;5.80
15062;BMP180;7630;50.306;8.566;2023-04-05T07:11:06;98357.00;;;5.30
15062;BMP180;7630;50.306;8.566;2023-04-05T07:15:07;98356.00;;;5.10
15062;BMP180;7630;50.306;8.566;2023-04-05T07:19:08;98356.00;;;4.50
15062;BMP180;7630;50.306;8.566;2023-04-05T07:23:10;98346.00;;;4.10
15062;BMP180;7630;50.306;8.566;2023-04-05T07:27:11;98358.00;;;4.40
15062;BMP180;7630;50.306;8.566;2023-04-05T07:31:13;98359.00;;;4.50
15062;BMP180;7630;50.306;8.566;2023-04-05T07:35:15;98363.00;;;4.70
15062;BMP180;7630;50.306;8.566;2023-04-05T07:39:17;98366.00;;;5.10
15062;BMP180;7630;50.306;8.566;2023-04-05T07:43:18;98353.00;;;5.20
15062;BMP180;7630;50.306;8.566;2023-04-05T07:47:19;98365.00;;;6.10
15062;BMP180;7630;50.306;8.566;2023-04-05T07:51:20;98361.00;;;6.70
15062;BMP180;7630;50.306;8.566;2023-04-05T07:55:21;98357.00;;;6.50
15062;BMP180;7630;50.306;8.566;2023-04-05T07:59:23;98373.00;;;7.60
15062;BMP180;7630;50.306;8.566;2023-04-05T08:03:24;98368.00;;;7.90
15062;BMP180;7630;50.306;8.566;2023-04-05T08:07:25;98356.00;;;8.90
15062;BMP180;7630;50.306;8.566;2023-04-05T08:11:26;98358.00;;;9.70
15062;BMP180;7630;50.306;8.566;2023-04-05T08:15:27;98353.00;;;10.20
15062;BMP180;7630;50.306;8.566;2023-04-05T08:19:28;98358.00;;;7.80
15062;BMP180;7630;50.306;8.566;2023-04-05T08:23:30;98354.00;;;6.60
15062;BMP180;7630;50.306;8.566;2023-04-05T08:27:31;98358.00;;;6.90
15062;BMP180;7630;50.306;8.566;2023-04-05T08:31:32;98346.00;;;6.70
15062;BMP180;7630;50.306;8.566;2023-04-05T08:35:36;98342.00;;;6.20
15062;BMP180;7630;50.306;8.566;2023-04-05T08:39:37;98350.00;;;7.30
15062;BMP180;7630;50.306;8.566;2023-04-05T08:43:55;98339.00;;;5.90
15062;BMP180;7630;50.306;8.566;2023-04-05T08:47:58;98353.00;;;5.50
15062;BMP180;7630;50.306;8.566;2023-04-05T08:51:59;98344.00;;;5.90
15062;BMP180;7630;50.306;8.566;2023-04-05T08:56:02;98334.00;;;6.30
15062;BMP180;7630;50.306;8.566;2023-04-05T09:00:03;98357.00;;;5.40
15062;BMP180;7630;50.306;8.566;2023-04-05T09:04:11;98342.00;;;5.20
15062;BMP180;7630;50.306;8.566;2023-04-05T09:08:12;98345.00;;;5.20
15062;BMP180;7630;50.306;8.566;2023-04-05T09:12:13;98335.00;;;5.60
15062;BMP180;7630;50.306;8.566;2023-04-05T09:16:15;98341.00;;;8.10
15062;BMP180;7630;50.306;8.566;2023-04-05T09:20:17;98339.00;;;6.40
15062;BMP180;7630;50.306;8.566;2023-04-05T09:24:30;98342.00;;;7.00
15062;BMP180;7630;50.306;8.566;2023-04-05T09:28:41;98352.00;;;6.40
15062;BMP180;7630;50.306;8.566;2023-04-05T09:32:45;98341.00;;;5.60
15062;BMP180;7630;50.306;8.566;2023-04-05T09:36:46;98343.00;;;7.00
15062;BMP180;7630;50.306;8.566;2023-04-05T09:40:48;98341.00;;;5.60
15062;BMP180;7630;50.306;8.566;2023-04-05T09:44:59;98341.00;;;5.30
15062;BMP180;7630;50.306;8.566;2023-04-05T09:49:02;98336.00;;;7.60
15062;BMP180;7630;50.306;8.566;2023-04-05T09:53:11;98335.00;;;6.30
15062;BMP180;7630;50.306;8.566;2023-04-05T09:57:15;98337.00;;;6.20
15062;BMP180;7630;50.306;8.566;2023-04-05T10:01:20;98338.00;;;5.90
15062;BMP180;7630;50.306;8.566;2023-04-05T10:05:28;98337.00;;;7.10
15062;BMP180;7630;50.306;8.566;2023-04-05T10:09:29;98339.00;;;7.80
15062;BMP180;7630;50.306;8.566;2023-04-05T10:13:31;98332.00;;;6.50
15062;BMP180;7630;50.306;8.566;2023-04-05T10:21:50;98331.00;;;6.70
15062;BMP180;7630;50.306;8.566;2023-04-05T10:30:07;98331.00;;;10.20
15062;BMP180;7630;50.306;8.566;2023-04-05T10:34:06;98325.00;;;9.90
15062;BMP180;7630;50.306;8.566;2023-04-05T10:38:11;98310.00;;;7.00
15062;BMP180;7630;50.306;8.566;2023-04-05T10:42:25;98320.00;;;7.00
15062;BMP180;7630;50.306;8.566;2023-04-05T10:46:24;98321.00;;;7.10
15062;BMP180;7630;50.306;8.566;2023-04-05T10:50:26;98308.00;;;8.60
15062;BMP180;7630;50.306;8.566;2023-04-05T10:54:28;98300.00;;;8.20
15062;BMP180;7630;50.306;8.566;2023-04-05T10:58:31;98312.00;;;9.50
15062;BMP180;7630;50.306;8.566;2023-04-05T11:02:34;98302.00;;;8.10
15062;BMP180;7630;50.306;8.566;2023-04-05T11:06:35;98300.00;;;6.60
15062;BMP180;7630;50.306;8.566;2023-04-05T11:10:37;98300.00;;;7.60
15062;BMP180;7630;50.306;8.566;2023-04-05T11:14:39;98302.00;;;8.30
15062;BMP180;7630;50.306;8.566;2023-04-05T11:18:45;98301.00;;;7.90
15062;BMP180;7630;50.306;8.566;2023-04-05T11:22:52;98288.00;;;8.00
15062;BMP180;7630;50.306;8.566;2023-04-05T11:26:54;98303.00;;;8.60
15062;BMP180;7630;50.306;8.566;2023-04-05T11:30:56;98289.00;;;10.30
15062;BMP180;7630;50.306;8.566;2023-04-05T11:35:00;98288.00;;;11.40
15062;BMP180;7630;50.306;8.566;2023-04-05T11:43:25;98284.00;;;8.70
15062;BMP180;7630;50.306;8.566;2023-04-05T11:47:27;98286.00;;;9.50
15062;BMP180;7630;50.306;8.566;2023-04-05T11:51:30;98273.00;;;10.00
15062;BMP180;7630;50.306;8.566;2023-04-05T11:55:33;98259.00;;;7.50
15062;BMP180;7630;50.306;8.566;2023-04-05T11:59:34;98265.00;;;8.50
15062;BMP180;7630;50.306;8.566;2023-04-05T12:03:36;98257.00;;;11.50
15062;BMP180;7630;50.306;8.566;2023-04-05T12:07:37;98263.00;;;13.00
15062;BMP180;7630;50.306;8.566;2023-04-05T12:11:38;98248.00;;;13.20
15062;BMP180;7630;50.306;8.566;2023-04-05T12:15:41;98256.00;;;13.40
15062;BMP180;7630;50.306;8.566;2023-04-05T12:19:43;98246.00;;;12.80
15062;BMP180;7630;50.306;8.566;2023-04-05T12:23:44;98253.00;;;13.80
15062;BMP180;7630;50.306;8.566;2023-04-05T12:27:45;98238.00;;;13.20
15062;BMP180;7630;50.306;8.566;2023-04-05T12:31:49;98236.00;;;13.50
15062;BMP180;7630;50.306;8.566;2023-04-05T12:35:51;98245.00;;;13.90
15062;BMP180;7630;50.306;8.566;2023-04-05T12:39:53;98235.00;;;14.20
15062;BMP180;7630;50.306;8.566;2023-04-05T12:43:55;98233.00;;;14.60
15062;BMP180;7630;50.306;8.566;2023-04-05T12:48:02;98227.00;;;15.90
15062;BMP180;7630;50.306;8.566;2023-04-05T12:52:03;98228.00;;;17.90
15062;BMP180;7630;50.306;8.566;2023-04-05T12:56:05;98232.00;;;19.20
15062;BMP180;7630;50.306;8.566;2023-04-05T13:00:07;98218.00;;;18.10
15062;BMP180;7630;50.306;8.566;2023-04-05T13:04:10;98210.00;;;16.20
15062;BMP180;7630;50.306;8.566;2023-04-05T13:08:14;98211.00;;;17.70
15062;BMP180;7630;50.306;8.566;2023-04-05T13:12:15;98214.00;;;18.00
15062;BMP180;7630;50.306;8.566;2023-04-05T13:16:17;98218.00;;;19.10
15062;BMP180;7630;50.306;8.566;2023-04-05T13:20:18;98201.00;;;18.80
15062;BMP180;7630;50.306;8.566;2023-04-05T13:24:19;98200.00;;;19.40
15062;BMP180;7630;50.306;8.566;2023-04-05T13:28:20;98196.00;;;20.00
15062;BMP180;7630;50.306;8.566;2023-04-05T13:32:21;98190.00;;;18.90
15062;BMP180;7630;50.306;8.566;2023-04-05T13:36:22;98195.00;;;17.50
15062;BMP180;7630;50.306;8.566;2023-04-05T13:40:24;98190.00;;;17.70
15062;BMP180;7630;50.306;8.566;2023-04-05T13:44:25;98186.00;;;16.70
15062;BMP180;7630;50.306;8.566;2023-04-05T13:48:27;98180.00;;;17.30
15062;BMP180;7630;50.306;8.566;2023-04-05T13:52:28;98174.00;;;15.50
15062;BMP180;7630;50.306;8.566;2023-04-05T13:56:29;98176.00;;;17.20
15062;BMP180;7630;50.306;8.566;2023-04-05T14:00:31;98176.00;;;16.70
15062;BMP180;7630;50.306;8.566;2023-04-05T14:04:32;98161.00;;;11.50
15062;BMP180;7630;50.306;8.566;2023-04-05T14:08:33;98178.00;;;13.50
15062;BMP180;7630;50.306;8.566;2023-04-05T14:12:34;98160.00;;;11.00
15062;BMP180;7630;50.306;8.566;2023-04-05T14:16:35;98153.00;;;11.90
15062;BMP180;7630;50.306;8.566;2023-04-05T14:20:38;98156.00;;;12.30
15062;BMP180;7630;50.306;8.566;2023-04-05T14:24:40;98149.00;;;11.70
15062;BMP180;7630;50.306;8.566;2023-04-05T14:28:41;98157.00;;;12.70
15062;BMP180;7630;50.306;8.566;2023-04-05T14:32:42;98134.00;;;14.20
15062;BMP180;7630;50.306;8.566;2023-04-05T14:36:45;98137.00;;;12.80
15062;BMP180;7630;50.306;8.566;2023-04-05T14:40:46;98130.00;;;16.20
15062;BMP180;7630;50.306;8.566;2023-04-05T14:44:48;98133.00;;;16.70
15062;BMP180;7630;50.306;8.566;2023-04-05T14:48:49;98129.00;;;14.10
15062;BMP180;7630;50.306;8.566;2023-04-05T14:52:52;98122.00;;;11.40
15062;BMP180;7630;50.306;8.566;2023-04-05T14:56:53;98122.00;;;10.90
15062;BMP180;7630;50.306;8.566;2023-04-05T15:00:54;98117.00;;;12.00
15062;BMP180;7630;50.306;8.566;2023-04-05T15:04:56;98124.00;;;12.70
15062;BMP180;7630;50.306;8.566;2023-04-05T15:08:59;98113.00;;;14.00
15062;BMP180;7630;50.306;8.566;2023-04-05T15:13:01;98115.00;;;10.00
15062;BMP180;7630;50.306;8.566;2023-04-05T15:17:02;98116.00;;;11.50
15062;BMP180;7630;50.306;8.566;2023-04-05T15:21:04;98116.00;;;14.20
15062;BMP180;7630;50.306;8.566;2023-04-05T15:25:07;98115.00;;;12.80
15062;BMP180;7630;50.306;8.566;2023-04-05T15:29:09;98111.00;;;12.50
15062;BMP180;7630;50.306;8.566;2023-04-05T15:33:10;98112.00;;;11.70
15062;BMP180;7630;50.306;8.566;2023-04-05T15:37:11;98107.00;;;11.50
15062;BMP180;7630;50.306;8.566;2023-04-05T15:41:13;98106.00;;;11.70
15062;BMP180;7630;50.306;8.566;2023-04-05T15:45:14;98108.00;;;11.90
15062;BMP180;7630;50.306;8.566;2023-04-05T15:49:16;98107.00;;;9.20
15062;BMP180;7630;50.306;8.566;2023-04-05T15:53:18;98106.00;;;9.90
15062;BMP180;7630;50.306;8.566;2023-04-05T15:57:19;98112.00;;;9.80
15062;BMP180;7630;50.306;8.566;2023-04-05T16:01:21;98108.00;;;10.40
15062;BMP180;7630;50.306;8.566;2023-04-05T16:05:22;98108.00;;;10.00
15062;BMP180;7630;50.306;8.566;2023-04-05T16:09:23;98109.00;;;9.80
15062;BMP180;7630;50.306;8.566;2023-04-05T16:13:24;98096.00;;;10.20
15062;BMP180;7630;50.306;8.566;2023-04-05T16:17:25;98102.00;;;10.20
15062;BMP180;7630;50.306;8.566;2023-04-05T16:21:27;98103.00;;;12.00
15062;BMP180;7630;50.306;8.566;2023-04-05T16:25:29;98103.00;;;12.70
15062;BMP180;7630;50.306;8.566;2023-04-05T16:29:30;98078.00;;;10.90
15062;BMP180;7630;50.306;8.566;2023-04-05T16:33:31;98093.00;;;10.10
15062;BMP180;7630;50.306;8.566;2023-04-05T16:37:32;98087.00;;;10.70
15062;BMP180;7630;50.306;8.566;2023-04-05T16:41:34;98093.00;;;10.90
15062;BMP180;7630;50.306;8.566;2023-04-05T16:45:36;98087.00;;;11.80
15062;BMP180;7630;50.306;8.566;2023-04-05T16:49:37;98090.00;;;10.40
15062;BMP180;7630;50.306;8.566;2023-04-05T16:53:38;98082.00;;;9.90
15062;BMP180;7630;50.306;8.566;2023-04-05T16:57:39;98085.00;;;9.70
15062;BMP180;7630;50.306;8.566;2023-04-05T17:01:40;98090.00;;;10.50
15062;BMP180;7630;50.306;8.566;2023-04-05T17:05:47;98097.00;;;10.60
15062;BMP180;7630;50.306;8.566;2023-04-05T17:09:45;98095.00;;;10.40
15062;BMP180;7630;50.306;8.566;2023-04-05T17:13:47;98082.00;;;11.20
15062;BMP180;7630;50.306;8.566;2023-04-05T17:17:48;98091.00;;;11.30
15062;BMP180;7630;50.306;8.566;2023-04-05T17:21:49;98087.00;;;9.90
15062;BMP180;7630;50.306;8.566;2023-04-05T17:25:51;98090.00;;;11.80
15062;BMP180;7630;50.306;8.566;2023-04-05T17:29:52;98084.00;;;11.30
15062;BMP180;7630;50.306;8.566;2023-04-05T17:33:53;98093.00;;;11.70
15062;BMP180;7630;50.306;8.566;2023-04-05T17:37:55;98096.00;;;11.70
15062;BMP180;7630;50.306;8.566;2023-04-05T17:41:56;98099.00;;;12.10
15062;BMP180;7630;50.306;8.566;2023-04-05T17:45:57;98094.00;;;10.80
15062;BMP180;7630;50.306;8.566;2023-04-05T17:49:58;98100.00;;;11.30
15062;BMP180;7630;50.306;8.566;2023-04-05T17:54:00;98093.00;;;11.00
15062;BMP180;7630;50.306;8.566;2023-04-05T17:58:01;98088.00;;;11.20
15062;BMP180;7630;50.306;8.566;2023-04-05T18:02:02;98089.00;;;11.10
15062;BMP180;7630;50.306;8.566;2023-04-05T18:06:04;98092.00;;;10.90
15062;BMP180;7630;50.306;8.566;2023-04-05T18:10:06;98092.00;;;11.20
15062;BMP180;7630;50.306;8.566;2023-04-05T18:14:08;98094.00;;;11.00
15062;BMP180;7630;50.306;8.566;2023-04-05T18:18:09;98085.00;;;10.80
15062;BMP180;7630;50.306;8.566;2023-04-05T18:22:11;98094.00;;;10.30
15062;BMP180;7630;50.306;8.566;2023-04-05T18:26:14;98099.00;;;10.50
15062;BMP180;7630;50.306;8.566;2023-04-05T18:30:15;98095.00;;;10.10
15062;BMP180;7630;50.306;8.566;2023-04-05T18:34:16;98110.00;;;10.20
15062;BMP180;7630;50.306;8.566;2023-04-05T18:38:18;98099.00;;;9.90
15062;BMP180;7630;50.306;8.566;2023-04-05T18:42:19;98107.00;;;9.90
15062;BMP180;7630;50.306;8.566;2023-04-05T18:46:21;98110.00;;;9.40
15062;BMP180;7630;50.306;8.566;2023-04-05T18:50:23;98113.00;;;9.30
15062;BMP180;7630;50.306;8.566;2023-04-05T18:54:24;98120.00;;;9.00
15062;BMP180;7630;50.306;8.566;2023-04-05T18:58:25;98116.00;;;9.00
15062;BMP180;7630;50.306;8.566;2023-04-05T19:02:26;98120.00;;;8.90
15062;BMP180;7630;50.306;8.566;2023-04-05T19:06:28;98118.00;;;8.90
15062;BMP180;7630;50.306;8.566;2023-04-05T19:10:29;98137.00;;;8.80
15062;BMP180;7630;50.306;8.566;2023-04-05T19:14:31;98135.00;;;8.50
15062;BMP180;7630;50.306;8.566;2023-04-05T19:18:32;98135.00;;;8.30
15062;BMP180;7630;50.306;8.566;2023-04-05T19:22:34;98130.00;;;8.00
15062;BMP180;7630;50.306;8.566;2023-04-05T19:26:35;98130.00;;;8.00
15062;BMP180;7630;50.306;8.566;2023-04-05T19:30:38;98132.00;;;8.00
15062;BMP180;7630;50.306;8.566;2023-04-05T19:34:40;98139.00;;;7.30
15062;BMP180;7630;50.306;8.566;2023-04-05T19:38:41;98131.00;;;7.40
15062;BMP180;7630;50.306;8.566;2023-04-05T19:42:42;98123.00;;;7.50
15062;BMP180;7630;50.306;8.566;2023-04-05T19:46:46;98132.00;;;7.50
15062;BMP180;7630;50.306;8.566;2023-04-05T19:50:47;98142.00;;;7.40
15062;BMP180;7630;50.306;8.566;2023-04-05T19:54:49;98144.00;;;7.30
15062;BMP180;7630;50.306;8.566;2023-04-05T19:58:57;98133.00;;;6.50
15062;BMP180;7630;50.306;8.566;2023-04-05T20:02:58;98134.00;;;6.80
15062;BMP180;7630;50.306;8.566;2023-04-05T20:07:01;98149.00;;;6.80
15062;BMP180;7630;50.306;8.566;2023-04-05T20:11:05;98141.00;;;6.80
15062;BMP180;7630;50.306;8.566;2023-04-05T20:15:10;98130.00;;;6.50
15062;BMP180;7630;50.306;8.566;2023-04-05T20:19:12;98134.00;;;6.60
15062;BMP180;7630;50.306;8.566;2023-04-05T20:23:17;98132.00;;;6.60
15062;BMP180;7630;50.306;8.566;2023-04-05T20:27:19;98131.00;;;6.50
15062;BMP180;7630;50.306;8.566;2023-04-05T20:31:26;98126.00;;;6.40
15062;BMP180;7630;50.306;8.566;2023-04-05T20:35:30;98117.00;;;6.40
15062;BMP180;7630;50.306;8.566;2023-04-05T20:39:33;98121.00;;;6.10
15062;BMP180;7630;50.306;8.566;2023-04-05T20:43:34;98112.00;;;6.20
15062;BMP180;7630;50.306;8.566;2023-04-05T20:47:36;98111.00;;;6.20
15062;BMP180;7630;50.306;8.566;2023-04-05T20:51:37;98117.00;;;6.00
15062;BMP180;7630;50.306;8.566;2023-04-05T20:55:40;97999.00;;;5.80
15062;BMP180;7630;50.306;8.566;2023-04-05T20:59:41;98105.00;;;5.70
15062;BMP180;7630;50.306;8.566;2023-04-05T21:03:43;98104.00;;;5.50
15062;BMP180;7630;50.306;8.566;2023-04-05T21:07:44;98102.00;;;5.60
15062;BMP180;7630;50.306;8.566;2023-04-05T21:11:46;98105.00;;;5.50
15062;BMP180;7630;50.306;8.566;2023-04-05T21:15:47;98103.00;;;5.60
15062;BMP180;7630;50.306;8.566;2023-04-05T21:19:48;98100.00;;;5.50
15062;BMP180;7630;50.306;8.566;2023-04-05T21:23:50;97912.00;;;5.30
15062;BMP180;7630;50.306;8.566;2023-04-05T21:27:51;98108.00;;;5.30
15062;BMP180;7630;50.306;8.566;2023-04-05T21:31:52;98098.00;;;5.10
15062;BMP180;7630;50.306;8.566;2023-04-05T21:35:54;98094.00;;;4.90
15062;BMP180;7630;50.306;8.566;2023-04-05T21:39:55;98095.00;;;4.90
15062;BMP180;7630;50.306;8.566;2023-04-05T21:43:56;98085.00;;;5.00
15062;BMP180;7630;50.306;8.566;2023-04-05T21:47:57;98090.00;;;4.70
15062;BMP180;7630;50.306;8.566;2023-04-05T21:51:58;98088.00;;;4.70
15062;BMP180;7630;50.306;8.566;2023-04-05T21:55:59;98089.00;;;4.70
15062;BMP180;7630;50.306;8.566;2023-04-05T22:00:01;98096.00;;;4.60
15062;BMP180;7630;50.306;8.566;2023-04-05T22:04:04;98085.00;;;4.60
15062;BMP180;7630;50.306;8.566;2023-04-05T22:08:05;98095.00;;;4.50
15062;BMP180;7630;50.306;8.566;2023-04-05T22:12:08;98092.00;;;4.50
15062;BMP180;7630;50.306;8.566;2023-04-05T22:16:09;98091.00;;;4.40
15062;BMP180;7630;50.306;8.566;2023-04-05T22:20:11;98087.00;;;4.40
15062;BMP180;7630;50.306;8.566;2023-04-05T22:24:13;98090.00;;;4.50
15062;BMP180;7630;50.306;8.566;2023-04-05T22:28:14;97902.00;;;4.40
15062;BMP180;7630;50.306;8.566;2023-04-05T22:32:15;98085.00;;;4.40
15062;BMP180;7630;50.306;8.566;2023-04-05T22:36:16;98087.00;;;4.20
15062;BMP180;7630;50.306;8.566;2023-04-05T22:40:18;98082.00;;;4.20
15062;BMP180;7630;50.306;8.566;2023-04-05T22:44:19;98086.00;;;4.20
15062;BMP180;7630;50.306;8.566;2023-04-05T22:48:21;98085.00;;;4.20
15062;BMP180;7630;50.306;8.566;2023-04-05T22:52:22;98082.00;;;4.10
15062;BMP180;7630;50.306;8.566;2023-04-05T22:56:24;98078.00;;;4.10
15062;BMP180;7630;50.306;8.566;2023-04-05T23:00:25;98074.00;;;4.00
15062;BMP180;7630;50.306;8.566;2023-04-05T23:04:26;98077.00;;;4.10
15062;BMP180;7630;50.306;8.566;2023-04-05T23:08:28;98072.00;;;3.80
15062;BMP180;7630;50.306;8.566;2023-04-05T23:12:29;98068.00;;;4.00
15062;BMP180;7630;50.306;8.566;2023-04-05T23:16:30;98078.00;;;4.00
15062;BMP180;7630;50.306;8.566;2023-04-05T23:20:31;98068.00;;;3.80
15062;BMP180;7630;50.306;8.566;2023-04-05T23:24:32;98076.00;;;3.70
15062;BMP180;7630;50.306;8.566;2023-04-05T23:28:33;98075.00;;;3.80
15062;BMP180;7630;50.306;8.566;2023-04-05T23:32:35;98073.00;;;3.90
15062;BMP180;7630;50.306;8.566;2023-04-05T23:36:36;98064.00;;;3.40
15062;BMP180;7630;50.306;8.566;2023-04-05T23:40:38;98061.00;;;3.50
15062;BMP180;7630;50.306;8.566;2023-04-05T23:44:39;98065.00;;;4.10
15062;BMP180;7630;50.306;8.566;2023-04-05T23:48:40;98062.00;;;4.00
15062;BMP180;7630;50.306;8.566;2023-04-05T23:52:41;98050.00;;;3.60
15062;BMP180;7630;50.306;8.566;2023-04-05T23:56:42;98049.00;;;2.90
